Berlin Bridge — VRIM5 — position and weather

sailwx.info

Track history (hours):
 
Tides and Currents Weather Stations Pressure Air Temp Water Temp Dewpoint Dewpoint Depression Visibility Wind Speed Wind Dir Waves Ship Positions

Berlin Bridge

Last reported at 2017-Oct-22 12:00 UTC. Time now 2017-Oct-22 12:11 UTC.
Position N 37°15' W 025°17'.

Length 268 m; draft 12.1 m.

Type: Ship (hazmat cat A). MMSI: 477213800.

Date/timePositionNaut miles runAvg speedWind from/ knotsBaromVisibWave heightAir tempDewpointWater temp
2017-Oct-22 12:00N 37°15' W 025°17'918.5
2017-Oct-22 11:31N 37°11' W 025°06'1019.8
2017-Oct-22 11:00N 37°06' W 024°56'1019.3
2017-Oct-22 10:30N 37°01' W 024°46'919.0
2017-Oct-22 10:01N 36°60' W 024°34'1019.2
2017-Oct-22 09:30N 36°59' W 024°22'1019.1
2017-Oct-22 09:00N 36°59' W 024°10'918.9
2017-Oct-22 08:30N 36°58' W 023°58'1019.2
2017-Oct-22 08:01N 36°58' W 023°46'1019.3
2017-Oct-22 07:31N 36°57' W 023°34'86918.0
2017-Oct-20 07:17N 35°58' W 005°36'516.7
2017-Oct-20 07:00N 35°59' W 005°30'815.2
2017-Oct-20 06:30N 36°01' W 005°21'917.1
2017-Oct-20 06:00N 36°02' W 005°11'21118.1
2017-Oct-19 18:24N 37°13' W 001°04'918.0
2017-Oct-19 17:54N 37°19' W 000°55'718.2
2017-Oct-19 17:30N 37°24' W 000°49'1018.3
2017-Oct-19 16:59N 37°30' W 000°40'918.1
2017-Oct-19 16:28N 37°37' W 000°32'918.5
2017-Oct-19 16:00N 37°44' W 000°25'918.7
2017-Oct-19 15:30N 37°52' W 000°19'918.8
2017-Oct-19 15:00N 37°60' W 000°12'20018.9
2017-Oct-19 04:24N 40°35' E 002°31'1019.5
2017-Oct-19 03:55N 40°42' E 002°39'14819.4
2017-Oct-18 20:18N 42°42' E 004°34'819.6
2017-Oct-18 19:54N 42°49' E 004°40'819.7
2017-Oct-18 19:30N 42°55' E 004°46'1019.4
2017-Oct-18 19:00N 43°04' E 004°53'816.1
2017-Oct-18 18:30N 43°10' E 004°59'5 9.0
2017-Oct-18 18:00N 43°15' E 004°60'714.7
2017-Oct-18 17:30N 43°22' E 004°58'4 8.2
2017-Oct-18 17:00N 43°24' E 004°53'2 3.0
2017-Oct-18 16:30N 43°25' E 004°51'0 0.0
2017-Oct-18 16:00N 43°25' E 004°51'0 0.0
2017-Oct-18 15:30N 43°25' E 004°51'0 0.0
2017-Oct-18 15:00N 43°25' E 004°51'0 0.0
2017-Oct-18 14:00N 43°25' E 004°51'0 0.0
2017-Oct-18 13:30N 43°25' E 004°51'0 0.0
2017-Oct-18 13:00N 43°25' E 004°51'0 0.0
2017-Oct-18 12:30N 43°25' E 004°51'0 0.0
2017-Oct-18 12:00N 43°25' E 004°51'0 0.0
2017-Oct-18 11:30N 43°25' E 004°51'0 0.0
2017-Oct-18 11:00N 43°25' E 004°51'0 0.0
2017-Oct-18 10:30N 43°25' E 004°51'0 0.0
2017-Oct-18 10:00N 43°25' E 004°51'0 0.0
2017-Oct-18 09:30N 43°25' E 004°51'0 0.0
2017-Oct-18 09:00N 43°25' E 004°51'0 0.0
2017-Oct-18 08:30N 43°25' E 004°51'0 0.0
2017-Oct-18 08:00N 43°25' E 004°51'0 0.0
2017-Oct-18 07:30N 43°25' E 004°51'0 0.0
2017-Oct-18 07:00N 43°25' E 004°51'0 0.0
2017-Oct-18 06:30N 43°25' E 004°51'0 0.0
2017-Oct-18 06:00N 43°25' E 004°51'0 0.0
2017-Oct-18 05:30N 43°25' E 004°51'0 0.0
2017-Oct-18 05:00N 43°25' E 004°51'0 0.0
2017-Oct-18 04:30N 43°25' E 004°51'0 0.0
2017-Oct-18 04:00N 43°25' E 004°51'0 0.0
2017-Oct-18 03:30N 43°25' E 004°51'0 0.0
2017-Oct-18 03:00N 43°25' E 004°51'0 0.1
2017-Oct-18 02:30N 43°25' E 004°51'2 3.7
2017-Oct-18 02:00N 43°24' E 004°53'510.7
2017-Oct-18 01:30N 43°20' E 004°59'510.1
2017-Oct-18 01:00N 43°16' E 005°01'5 9.9
2017-Oct-18 00:31N 43°11' E 005°03'5 9.9
2017-Oct-18 00:00N 43°06' E 005°05'713.2
2017-Oct-17 23:31N 42°60' E 005°07'713.6
2017-Oct-17 23:01N 42°53' E 005°10'916.9
2017-Oct-17 22:30N 42°50' E 005°21'916.6
2017-Oct-17 21:56N 42°47' E 005°33'716.9
2017-Oct-17 21:31N 42°46' E 005°43'917.0
2017-Oct-17 21:00N 42°44' E 005°54'2017.5
2017-Oct-17 19:53N 42°42' E 006°21'717.9
2017-Oct-17 19:30N 42°45' E 006°29'918.1
2017-Oct-17 19:01N 42°50' E 006°39'918.0
2017-Oct-17 18:30N 42°54' E 006°50'918.0
2017-Oct-17 18:00N 42°58' E 007°01'918.0
2017-Oct-17 17:30N 43°01' E 007°12'918.0
2017-Oct-17 17:01N 43°05' E 007°23'918.0
2017-Oct-17 16:31N 43°09' E 007°34'917.8
2017-Oct-17 16:00N 43°13' E 007°45'917.7
2017-Oct-17 15:31N 43°17' E 007°56'1121.4
2017-Oct-17 15:00N 43°24' E 008°07'1223.4
2017-Oct-17 14:31N 43°33' E 008°18'1223.5
2017-Oct-17 14:00N 43°42' E 008°28'1223.4
2017-Oct-17 13:31N 43°52' E 008°38'1223.2
2017-Oct-17 13:01N 44°01' E 008°48'1122.8
2017-Oct-17 12:30N 44°11' E 008°54'1121.1
2017-Oct-17 12:00N 44°22' E 008°57'4 6.3
2017-Oct-17 11:25N 44°24' E 008°54'0 0.0
2017-Oct-17 10:55N 44°24' E 008°54'0 0.0
2017-Oct-17 10:22N 44°24' E 008°54'0 0.0
2017-Oct-17 09:58N 44°24' E 008°54'0 0.0
2017-Oct-17 09:25N 44°24' E 008°54'0 0.0
2017-Oct-17 08:55N 44°24' E 008°54'0 0.0
2017-Oct-17 08:25N 44°24' E 008°54'0 0.0
2017-Oct-17 07:55N 44°24' E 008°54'0 0.0
2017-Oct-17 07:28N 44°24' E 008°54'0 0.0
2017-Oct-17 06:58N 44°24' E 008°54'0 0.0
2017-Oct-17 06:28N 44°24' E 008°54'0 0.0
2017-Oct-17 05:58N 44°24' E 008°54'0 0.0
2017-Oct-17 05:28N 44°24' E 008°54'0 0.0
2017-Oct-17 04:58N 44°24' E 008°54'0 0.0
2017-Oct-17 04:28N 44°24' E 008°54'0 0.0
2017-Oct-17 03:58N 44°24' E 008°54'0 0.0
2017-Oct-17 03:28N 44°24' E 008°54'0 0.0
2017-Oct-17 02:58N 44°24' E 008°54'0 0.0
2017-Oct-17 02:28N 44°24' E 008°54'0 0.0
2017-Oct-17 01:58N 44°24' E 008°54'0 0.0
2017-Oct-17 01:28N 44°24' E 008°54'0 0.0
2017-Oct-17 00:58N 44°24' E 008°54'0 0.0
2017-Oct-17 00:28N 44°24' E 008°54'0 0.0
2017-Oct-16 23:52N 44°24' E 008°54'0 0.0
2017-Oct-16 23:28N 44°24' E 008°54'0 0.0
2017-Oct-16 22:58N 44°24' E 008°54'0 0.0
2017-Oct-16 22:28N 44°24' E 008°54'0 0.0
2017-Oct-16 21:58N 44°24' E 008°54'0 0.0
2017-Oct-16 21:25N 44°24' E 008°54'0 0.0
2017-Oct-16 20:58N 44°24' E 008°54'0 0.0
2017-Oct-16 20:25N 44°24' E 008°54'0 0.0
2017-Oct-16 19:58N 44°24' E 008°54'0 0.0
2017-Oct-16 19:28N 44°24' E 008°54'0 0.0
2017-Oct-16 18:58N 44°24' E 008°54'0 0.0
2017-Oct-16 18:28N 44°24' E 008°54'0 0.0
2017-Oct-16 17:58N 44°24' E 008°54'0 0.0
2017-Oct-16 17:28N 44°24' E 008°54'0 0.0
2017-Oct-16 16:58N 44°24' E 008°54'0 0.0
2017-Oct-16 16:28N 44°24' E 008°54'0 0.0
2017-Oct-16 15:58N 44°24' E 008°54'0 0.0
2017-Oct-16 15:28N 44°24' E 008°54'0 0.0
2017-Oct-16 14:58N 44°24' E 008°54'0 0.0
2017-Oct-16 14:28N 44°24' E 008°54'0 0.0
2017-Oct-16 13:28N 44°24' E 008°54'0 0.0
2017-Oct-16 12:58N 44°24' E 008°54'0 0.0
2017-Oct-16 12:28N 44°24' E 008°54'0 0.0
2017-Oct-16 11:58N 44°24' E 008°54'0 0.0
2017-Oct-16 11:28N 44°24' E 008°54'0 0.0
2017-Oct-16 10:58N 44°24' E 008°54'0 0.0
2017-Oct-16 10:28N 44°24' E 008°54'0 0.0
2017-Oct-16 09:55N 44°24' E 008°54'0 0.0
2017-Oct-16 09:28N 44°24' E 008°54'0 0.0
2017-Oct-16 08:58N 44°24' E 008°54'0 0.0
2017-Oct-16 08:28N 44°24' E 008°54'0 0.0
2017-Oct-16 07:58N 44°24' E 008°54'0 0.0
2017-Oct-16 07:28N 44°24' E 008°54'0 0.0
2017-Oct-16 06:58N 44°24' E 008°54'0 0.0
2017-Oct-16 06:22N 44°24' E 008°54'0 0.1
2017-Oct-16 06:00N 44°24' E 008°54'1 2.5
2017-Oct-16 05:31N 44°24' E 008°55'2 4.4
2017-Oct-16 05:00N 44°22' E 008°58'3 5.5
2017-Oct-16 04:30N 44°20' E 008°59'5 9.0
2017-Oct-16 04:00N 44°16' E 009°03'612.3
2017-Oct-16 03:30N 44°11' E 009°08'612.1
2017-Oct-16 03:00N 44°08' E 009°16'612.6
2017-Oct-16 02:30N 44°06' E 009°24'612.5
2017-Oct-16 02:00N 44°04' E 009°32'612.7
2017-Oct-16 01:30N 44°01' E 009°40'612.4
2017-Oct-16 01:00N 43°59' E 009°48'5 9.8
2017-Oct-16 00:30N 44°03' E 009°52'4 6.9
2017-Oct-15 23:58N 44°07' E 009°51'0 0.0
2017-Oct-15 23:28N 44°07' E 009°51'0 0.0
2017-Oct-15 22:58N 44°07' E 009°51'0 0.0
2017-Oct-15 22:28N 44°07' E 009°51'0 0.0
2017-Oct-15 21:58N 44°07' E 009°51'0 0.0
2017-Oct-15 21:28N 44°07' E 009°51'0 0.0
2017-Oct-15 20:55N 44°07' E 009°51'0 0.0
2017-Oct-15 20:28N 44°07' E 009°51'0 0.0
2017-Oct-15 19:58N 44°07' E 009°51'0 0.0
2017-Oct-15 19:28N 44°07' E 009°51'0 0.0
2017-Oct-15 18:58N 44°07' E 009°51'0 0.0
2017-Oct-15 18:25N 44°07' E 009°51'0 0.0
2017-Oct-15 17:58N 44°07' E 009°51'0 0.0
2017-Oct-15 17:28N 44°07' E 009°51'0 0.0
2017-Oct-15 16:52N 44°07' E 009°51'0 0.0
2017-Oct-15 16:28N 44°07' E 009°51'0 0.0
2017-Oct-15 15:52N 44°07' E 009°51'0 0.0
2017-Oct-15 15:28N 44°06' E 009°51'0 0.0
2017-Oct-15 14:52N 44°07' E 009°51'0 0.0
2017-Oct-15 13:58N 44°07' E 009°51'0 0.0
2017-Oct-15 13:25N 44°07' E 009°51'0 0.0
2017-Oct-15 12:52N 44°07' E 009°51'0 0.0
2017-Oct-15 12:28N 44°07' E 009°51'0 0.0
2017-Oct-15 11:58N 44°07' E 009°51'0 0.0
2017-Oct-15 11:28N 44°07' E 009°51'0 0.0
2017-Oct-15 10:58N 44°07' E 009°51'0 0.0
2017-Oct-15 10:28N 44°07' E 009°51'0 0.0
2017-Oct-15 09:58N 44°07' E 009°51'0 0.0
2017-Oct-15 09:28N 44°07' E 009°51'0 0.0
2017-Oct-15 08:58N 44°07' E 009°51'0 0.0
2017-Oct-15 08:28N 44°07' E 009°51'0 0.0
2017-Oct-15 07:58N 44°07' E 009°51'0 0.0
2017-Oct-15 07:28N 44°07' E 009°51'0 0.0
2017-Oct-15 06:58N 44°07' E 009°51'0 0.0
2017-Oct-15 06:28N 44°07' E 009°51'0 0.0
2017-Oct-15 05:55N 44°07' E 009°51'0 0.0
2017-Oct-15 05:28N 44°07' E 009°51'0 0.0
2017-Oct-15 04:58N 44°07' E 009°51'0 0.0
2017-Oct-15 04:28N 44°07' E 009°51'0 0.0
2017-Oct-15 03:58N 44°07' E 009°51'0 0.0
2017-Oct-15 03:28N 44°07' E 009°51'0 0.0
2017-Oct-15 02:58N 44°07' E 009°51'0 0.0
2017-Oct-15 02:28N 44°07' E 009°51'0 0.0
2017-Oct-15 01:58N 44°07' E 009°51'0 0.3
2017-Oct-15 01:30N 44°06' E 009°51'1 2.5
2017-Oct-15 01:00N 44°05' E 009°51'4 7.1
2017-Oct-15 00:30N 44°02' E 009°54'4 8.8
2017-Oct-15 00:00N 43°59' E 009°57'510.6
2017-Oct-14 23:30N 43°53' E 009°56'1121.2
2017-Oct-14 23:01N 43°43' E 009°53'1121.5
2017-Oct-14 22:30N 43°32' E 009°56'1121.7
2017-Oct-14 22:00N 43°30' E 010°11'5 9.8
2017-Oct-14 21:30N 43°32' E 010°17'2 4.4
2017-Oct-14 21:00N 43°34' E 010°18'0 0.2
2017-Oct-14 20:29N 43°35' E 010°18'0 0.0
2017-Oct-14 19:41N 43°35' E 010°18'0 0.0
2017-Oct-14 19:29N 43°35' E 010°18'0 0.0
2017-Oct-14 18:41N 43°35' E 010°18'0 0.0
2017-Oct-14 18:26N 43°35' E 010°18'0 0.0
2017-Oct-14 17:47N 43°35' E 010°18'0 0.0
2017-Oct-14 17:29N 43°35' E 010°18'0 0.0
2017-Oct-14 16:56N 43°35' E 010°18'0 0.0
2017-Oct-14 16:30N 43°35' E 010°18'0 0.0
2017-Oct-14 15:57N 43°35' E 010°18'0 0.0
2017-Oct-14 15:30N 43°35' E 010°18'0 0.0
2017-Oct-14 15:00N 43°35' E 010°18'0 0.0
2017-Oct-14 14:30N 43°35' E 010°18'0 0.0
2017-Oct-14 14:00N 43°35' E 010°18'0 0.0
2017-Oct-14 13:30N 43°35' E 010°18'0 0.0
2017-Oct-14 13:00N 43°35' E 010°18'0 0.0
2017-Oct-14 12:27N 43°35' E 010°18'0 0.0
2017-Oct-14 12:00N 43°35' E 010°18'0 0.0
2017-Oct-14 11:30N 43°35' E 010°18'0 0.0
2017-Oct-14 10:54N 43°35' E 010°18'0 0.0
2017-Oct-14 10:30N 43°35' E 010°18'0 0.0
2017-Oct-14 10:00N 43°35' E 010°18'0 0.0
2017-Oct-14 09:27N 43°35' E 010°18'0 0.0
2017-Oct-14 09:00N 43°35' E 010°18'0 0.0
2017-Oct-14 08:27N 43°35' E 010°18'0 0.0
2017-Oct-14 08:00N 43°35' E 010°18'0 0.0
2017-Oct-14 07:27N 43°35' E 010°18'0 0.0
2017-Oct-14 07:00N 43°35' E 010°18'0 0.0
2017-Oct-14 06:30N 43°35' E 010°18'1 1.1
2017-Oct-14 06:01N 43°34' E 010°18'3 6.4
2017-Oct-14 05:31N 43°31' E 010°16'1 1.3
2017-Oct-14 05:00N 43°31' E 010°15'1 2.4
2017-Oct-14 04:31N 43°30' E 010°14'4 8.1
2017-Oct-14 04:01N 43°27' E 010°10'2 4.3
2017-Oct-14 03:30N 43°28' E 010°13'4 8.5
2017-Oct-14 03:00N 43°24' E 010°12'510.2
2017-Oct-14 02:31N 43°19' E 010°10'5 9.8
2017-Oct-14 02:01N 43°14' E 010°09'611.8
2017-Oct-14 01:30N 43°09' E 010°07'815.1
2017-Oct-14 00:57N 43°00' E 010°03'614.7
2017-Oct-14 00:30N 42°55' E 009°58'714.6
2017-Oct-14 00:00N 42°50' E 009°51'2414.9
2017-Oct-13 22:25N 42°26' E 009°51'2014.8
2017-Oct-13 21:02N 42°06' E 009°57'115.5
2017-Oct-13 20:58N 42°06' E 009°58'715.6
2017-Oct-13 20:31N 42°01' E 010°06'815.9
2017-Oct-13 20:01N 41°57' E 010°15'815.5
2017-Oct-13 19:28N 41°51' E 010°23'2215.7
2017-Oct-13 18:06N 41°38' E 010°45'  
Track history (hours):
 
Tides and Currents Weather Stations Pressure Air Temp Water Temp Dewpoint Dewpoint Depression Visibility Wind Speed Wind Dir Waves Ship Positions

Berlin Bridge

Last reported at 2017-Oct-22 12:00 UTC. Time now 2017-Oct-22 12:11 UTC.
Position N 37°15' W 025°17'.

Length 268 m; draft 12.1 m.

Type: Ship (hazmat cat A). MMSI: 477213800.

Date/timePositionNaut miles runAvg speedWind from/ knotsBaromVisibWave heightAir tempDewpointWater temp
2017-Oct-22 12:00N 37°15' W 025°17'918.5
2017-Oct-22 11:31N 37°11' W 025°06'1019.8
2017-Oct-22 11:00N 37°06' W 024°56'1019.3
2017-Oct-22 10:30N 37°01' W 024°46'919.0
2017-Oct-22 10:01N 36°60' W 024°34'1019.2
2017-Oct-22 09:30N 36°59' W 024°22'1019.1
2017-Oct-22 09:00N 36°59' W 024°10'918.9
2017-Oct-22 08:30N 36°58' W 023°58'1019.2
2017-Oct-22 08:01N 36°58' W 023°46'1019.3
2017-Oct-22 07:31N 36°57' W 023°34'86918.0
2017-Oct-20 07:17N 35°58' W 005°36'516.7
2017-Oct-20 07:00N 35°59' W 005°30'815.2
2017-Oct-20 06:30N 36°01' W 005°21'917.1
2017-Oct-20 06:00N 36°02' W 005°11'21118.1
2017-Oct-19 18:24N 37°13' W 001°04'918.0
2017-Oct-19 17:54N 37°19' W 000°55'718.2
2017-Oct-19 17:30N 37°24' W 000°49'1018.3
2017-Oct-19 16:59N 37°30' W 000°40'918.1
2017-Oct-19 16:28N 37°37' W 000°32'918.5
2017-Oct-19 16:00N 37°44' W 000°25'918.7
2017-Oct-19 15:30N 37°52' W 000°19'918.8
2017-Oct-19 15:00N 37°60' W 000°12'20018.9
2017-Oct-19 04:24N 40°35' E 002°31'1019.5
2017-Oct-19 03:55N 40°42' E 002°39'14819.4
2017-Oct-18 20:18N 42°42' E 004°34'819.6
2017-Oct-18 19:54N 42°49' E 004°40'819.7
2017-Oct-18 19:30N 42°55' E 004°46'1019.4
2017-Oct-18 19:00N 43°04' E 004°53'816.1
2017-Oct-18 18:30N 43°10' E 004°59'5 9.0
2017-Oct-18 18:00N 43°15' E 004°60'714.7
2017-Oct-18 17:30N 43°22' E 004°58'4 8.2
2017-Oct-18 17:00N 43°24' E 004°53'2 3.0
2017-Oct-18 16:30N 43°25' E 004°51'0 0.0
2017-Oct-18 16:00N 43°25' E 004°51'0 0.0
2017-Oct-18 15:30N 43°25' E 004°51'0 0.0
2017-Oct-18 15:00N 43°25' E 004°51'0 0.0
2017-Oct-18 14:00N 43°25' E 004°51'0 0.0
2017-Oct-18 13:30N 43°25' E 004°51'0 0.0
2017-Oct-18 13:00N 43°25' E 004°51'0 0.0
2017-Oct-18 12:30N 43°25' E 004°51'0 0.0
2017-Oct-18 12:00N 43°25' E 004°51'0 0.0
2017-Oct-18 11:30N 43°25' E 004°51'0 0.0
2017-Oct-18 11:00N 43°25' E 004°51'0 0.0
2017-Oct-18 10:30N 43°25' E 004°51'0 0.0
2017-Oct-18 10:00N 43°25' E 004°51'0 0.0
2017-Oct-18 09:30N 43°25' E 004°51'0 0.0
2017-Oct-18 09:00N 43°25' E 004°51'0 0.0
2017-Oct-18 08:30N 43°25' E 004°51'0 0.0
2017-Oct-18 08:00N 43°25' E 004°51'0 0.0
2017-Oct-18 07:30N 43°25' E 004°51'0 0.0
2017-Oct-18 07:00N 43°25' E 004°51'0 0.0
2017-Oct-18 06:30N 43°25' E 004°51'0 0.0
2017-Oct-18 06:00N 43°25' E 004°51'0 0.0
2017-Oct-18 05:30N 43°25' E 004°51'0 0.0
2017-Oct-18 05:00N 43°25' E 004°51'0 0.0
2017-Oct-18 04:30N 43°25' E 004°51'0 0.0
2017-Oct-18 04:00N 43°25' E 004°51'0 0.0
2017-Oct-18 03:30N 43°25' E 004°51'0 0.0
2017-Oct-18 03:00N 43°25' E 004°51'0 0.1
2017-Oct-18 02:30N 43°25' E 004°51'2 3.7
2017-Oct-18 02:00N 43°24' E 004°53'510.7
2017-Oct-18 01:30N 43°20' E 004°59'510.1
2017-Oct-18 01:00N 43°16' E 005°01'5 9.9
2017-Oct-18 00:31N 43°11' E 005°03'5 9.9
2017-Oct-18 00:00N 43°06' E 005°05'713.2
2017-Oct-17 23:31N 42°60' E 005°07'713.6
2017-Oct-17 23:01N 42°53' E 005°10'916.9
2017-Oct-17 22:30N 42°50' E 005°21'916.6
2017-Oct-17 21:56N 42°47' E 005°33'716.9
2017-Oct-17 21:31N 42°46' E 005°43'917.0
2017-Oct-17 21:00N 42°44' E 005°54'2017.5
2017-Oct-17 19:53N 42°42' E 006°21'717.9
2017-Oct-17 19:30N 42°45' E 006°29'918.1
2017-Oct-17 19:01N 42°50' E 006°39'918.0
2017-Oct-17 18:30N 42°54' E 006°50'918.0
2017-Oct-17 18:00N 42°58' E 007°01'918.0
2017-Oct-17 17:30N 43°01' E 007°12'918.0
2017-Oct-17 17:01N 43°05' E 007°23'918.0
2017-Oct-17 16:31N 43°09' E 007°34'917.8
2017-Oct-17 16:00N 43°13' E 007°45'917.7
2017-Oct-17 15:31N 43°17' E 007°56'1121.4
2017-Oct-17 15:00N 43°24' E 008°07'1223.4
2017-Oct-17 14:31N 43°33' E 008°18'1223.5
2017-Oct-17 14:00N 43°42' E 008°28'1223.4
2017-Oct-17 13:31N 43°52' E 008°38'1223.2
2017-Oct-17 13:01N 44°01' E 008°48'1122.8
2017-Oct-17 12:30N 44°11' E 008°54'1121.1
2017-Oct-17 12:00N 44°22' E 008°57'4 6.3
2017-Oct-17 11:25N 44°24' E 008°54'0 0.0
2017-Oct-17 10:55N 44°24' E 008°54'0 0.0
2017-Oct-17 10:22N 44°24' E 008°54'0 0.0
2017-Oct-17 09:58N 44°24' E 008°54'0 0.0
2017-Oct-17 09:25N 44°24' E 008°54'0 0.0
2017-Oct-17 08:55N 44°24' E 008°54'0 0.0
2017-Oct-17 08:25N 44°24' E 008°54'0 0.0
2017-Oct-17 07:55N 44°24' E 008°54'0 0.0
2017-Oct-17 07:28N 44°24' E 008°54'0 0.0
2017-Oct-17 06:58N 44°24' E 008°54'0 0.0
2017-Oct-17 06:28N 44°24' E 008°54'0 0.0
2017-Oct-17 05:58N 44°24' E 008°54'0 0.0
2017-Oct-17 05:28N 44°24' E 008°54'0 0.0
2017-Oct-17 04:58N 44°24' E 008°54'0 0.0
2017-Oct-17 04:28N 44°24' E 008°54'0 0.0
2017-Oct-17 03:58N 44°24' E 008°54'0 0.0
2017-Oct-17 03:28N 44°24' E 008°54'0 0.0
2017-Oct-17 02:58N 44°24' E 008°54'0 0.0
2017-Oct-17 02:28N 44°24' E 008°54'0 0.0
2017-Oct-17 01:58N 44°24' E 008°54'0 0.0
2017-Oct-17 01:28N 44°24' E 008°54'0 0.0
2017-Oct-17 00:58N 44°24' E 008°54'0 0.0
2017-Oct-17 00:28N 44°24' E 008°54'0 0.0
2017-Oct-16 23:52N 44°24' E 008°54'0 0.0
2017-Oct-16 23:28N 44°24' E 008°54'0 0.0
2017-Oct-16 22:58N 44°24' E 008°54'0 0.0
2017-Oct-16 22:28N 44°24' E 008°54'0 0.0
2017-Oct-16 21:58N 44°24' E 008°54'0 0.0
2017-Oct-16 21:25N 44°24' E 008°54'0 0.0
2017-Oct-16 20:58N 44°24' E 008°54'0 0.0
2017-Oct-16 20:25N 44°24' E 008°54'0 0.0
2017-Oct-16 19:58N 44°24' E 008°54'0 0.0
2017-Oct-16 19:28N 44°24' E 008°54'0 0.0
2017-Oct-16 18:58N 44°24' E 008°54'0 0.0
2017-Oct-16 18:28N 44°24' E 008°54'0 0.0
2017-Oct-16 17:58N 44°24' E 008°54'0 0.0
2017-Oct-16 17:28N 44°24' E 008°54'0 0.0
2017-Oct-16 16:58N 44°24' E 008°54'0 0.0
2017-Oct-16 16:28N 44°24' E 008°54'0 0.0
2017-Oct-16 15:58N 44°24' E 008°54'0 0.0
2017-Oct-16 15:28N 44°24' E 008°54'0 0.0
2017-Oct-16 14:58N 44°24' E 008°54'0 0.0
2017-Oct-16 14:28N 44°24' E 008°54'0 0.0
2017-Oct-16 13:28N 44°24' E 008°54'0 0.0
2017-Oct-16 12:58N 44°24' E 008°54'0 0.0
2017-Oct-16 12:28N 44°24' E 008°54'0 0.0
2017-Oct-16 11:58N 44°24' E 008°54'0 0.0
2017-Oct-16 11:28N 44°24' E 008°54'0 0.0
2017-Oct-16 10:58N 44°24' E 008°54'0 0.0
2017-Oct-16 10:28N 44°24' E 008°54'0 0.0
2017-Oct-16 09:55N 44°24' E 008°54'0 0.0
2017-Oct-16 09:28N 44°24' E 008°54'0 0.0
2017-Oct-16 08:58N 44°24' E 008°54'0 0.0
2017-Oct-16 08:28N 44°24' E 008°54'0 0.0
2017-Oct-16 07:58N 44°24' E 008°54'0 0.0
2017-Oct-16 07:28N 44°24' E 008°54'0 0.0
2017-Oct-16 06:58N 44°24' E 008°54'0 0.0
2017-Oct-16 06:22N 44°24' E 008°54'0 0.1
2017-Oct-16 06:00N 44°24' E 008°54'1 2.5
2017-Oct-16 05:31N 44°24' E 008°55'2 4.4
2017-Oct-16 05:00N 44°22' E 008°58'3 5.5
2017-Oct-16 04:30N 44°20' E 008°59'5 9.0
2017-Oct-16 04:00N 44°16' E 009°03'612.3
2017-Oct-16 03:30N 44°11' E 009°08'612.1
2017-Oct-16 03:00N 44°08' E 009°16'612.6
2017-Oct-16 02:30N 44°06' E 009°24'612.5
2017-Oct-16 02:00N 44°04' E 009°32'612.7
2017-Oct-16 01:30N 44°01' E 009°40'612.4
2017-Oct-16 01:00N 43°59' E 009°48'5 9.8
2017-Oct-16 00:30N 44°03' E 009°52'4 6.9
2017-Oct-15 23:58N 44°07' E 009°51'0 0.0
2017-Oct-15 23:28N 44°07' E 009°51'0 0.0
2017-Oct-15 22:58N 44°07' E 009°51'0 0.0
2017-Oct-15 22:28N 44°07' E 009°51'0 0.0
2017-Oct-15 21:58N 44°07' E 009°51'0 0.0
2017-Oct-15 21:28N 44°07' E 009°51'0 0.0
2017-Oct-15 20:55N 44°07' E 009°51'0 0.0
2017-Oct-15 20:28N 44°07' E 009°51'0 0.0
2017-Oct-15 19:58N 44°07' E 009°51'0 0.0
2017-Oct-15 19:28N 44°07' E 009°51'0 0.0
2017-Oct-15 18:58N 44°07' E 009°51'0 0.0
2017-Oct-15 18:25N 44°07' E 009°51'0 0.0
2017-Oct-15 17:58N 44°07' E 009°51'0 0.0
2017-Oct-15 17:28N 44°07' E 009°51'0 0.0
2017-Oct-15 16:52N 44°07' E 009°51'0 0.0
2017-Oct-15 16:28N 44°07' E 009°51'0 0.0
2017-Oct-15 15:52N 44°07' E 009°51'0 0.0
2017-Oct-15 15:28N 44°06' E 009°51'0 0.0
2017-Oct-15 14:52N 44°07' E 009°51'0 0.0
2017-Oct-15 13:58N 44°07' E 009°51'0 0.0
2017-Oct-15 13:25N 44°07' E 009°51'0 0.0
2017-Oct-15 12:52N 44°07' E 009°51'0 0.0
2017-Oct-15 12:28N 44°07' E 009°51'0 0.0
2017-Oct-15 11:58N 44°07' E 009°51'0 0.0
2017-Oct-15 11:28N 44°07' E 009°51'0 0.0
2017-Oct-15 10:58N 44°07' E 009°51'0 0.0
2017-Oct-15 10:28N 44°07' E 009°51'0 0.0
2017-Oct-15 09:58N 44°07' E 009°51'0 0.0
2017-Oct-15 09:28N 44°07' E 009°51'0 0.0
2017-Oct-15 08:58N 44°07' E 009°51'0 0.0
2017-Oct-15 08:28N 44°07' E 009°51'0 0.0
2017-Oct-15 07:58N 44°07' E 009°51'0 0.0
2017-Oct-15 07:28N 44°07' E 009°51'0 0.0
2017-Oct-15 06:58N 44°07' E 009°51'0 0.0
2017-Oct-15 06:28N 44°07' E 009°51'0 0.0
2017-Oct-15 05:55N 44°07' E 009°51'0 0.0
2017-Oct-15 05:28N 44°07' E 009°51'0 0.0
2017-Oct-15 04:58N 44°07' E 009°51'0 0.0
2017-Oct-15 04:28N 44°07' E 009°51'0 0.0
2017-Oct-15 03:58N 44°07' E 009°51'0 0.0
2017-Oct-15 03:28N 44°07' E 009°51'0 0.0
2017-Oct-15 02:58N 44°07' E 009°51'0 0.0
2017-Oct-15 02:28N 44°07' E 009°51'0 0.0
2017-Oct-15 01:58N 44°07' E 009°51'0 0.3
2017-Oct-15 01:30N 44°06' E 009°51'1 2.5
2017-Oct-15 01:00N 44°05' E 009°51'4 7.1
2017-Oct-15 00:30N 44°02' E 009°54'4 8.8
2017-Oct-15 00:00N 43°59' E 009°57'510.6
2017-Oct-14 23:30N 43°53' E 009°56'1121.2
2017-Oct-14 23:01N 43°43' E 009°53'1121.5
2017-Oct-14 22:30N 43°32' E 009°56'1121.7
2017-Oct-14 22:00N 43°30' E 010°11'5 9.8
2017-Oct-14 21:30N 43°32' E 010°17'2 4.4
2017-Oct-14 21:00N 43°34' E 010°18'0 0.2
2017-Oct-14 20:29N 43°35' E 010°18'0 0.0
2017-Oct-14 19:41N 43°35' E 010°18'0 0.0
2017-Oct-14 19:29N 43°35' E 010°18'0 0.0
2017-Oct-14 18:41N 43°35' E 010°18'0 0.0
2017-Oct-14 18:26N 43°35' E 010°18'0 0.0
2017-Oct-14 17:47N 43°35' E 010°18'0 0.0
2017-Oct-14 17:29N 43°35' E 010°18'0 0.0
2017-Oct-14 16:56N 43°35' E 010°18'0 0.0
2017-Oct-14 16:30N 43°35' E 010°18'0 0.0
2017-Oct-14 15:57N 43°35' E 010°18'0 0.0
2017-Oct-14 15:30N 43°35' E 010°18'0 0.0
2017-Oct-14 15:00N 43°35' E 010°18'0 0.0
2017-Oct-14 14:30N 43°35' E 010°18'0 0.0
2017-Oct-14 14:00N 43°35' E 010°18'0 0.0
2017-Oct-14 13:30N 43°35' E 010°18'0 0.0
2017-Oct-14 13:00N 43°35' E 010°18'0 0.0
2017-Oct-14 12:27N 43°35' E 010°18'0 0.0
2017-Oct-14 12:00N 43°35' E 010°18'0 0.0
2017-Oct-14 11:30N 43°35' E 010°18'0 0.0
2017-Oct-14 10:54N 43°35' E 010°18'0 0.0
2017-Oct-14 10:30N 43°35' E 010°18'0 0.0
2017-Oct-14 10:00N 43°35' E 010°18'0 0.0
2017-Oct-14 09:27N 43°35' E 010°18'0 0.0
2017-Oct-14 09:00N 43°35' E 010°18'0 0.0
2017-Oct-14 08:27N 43°35' E 010°18'0 0.0
2017-Oct-14 08:00N 43°35' E 010°18'0 0.0
2017-Oct-14 07:27N 43°35' E 010°18'0 0.0
2017-Oct-14 07:00N 43°35' E 010°18'0 0.0
2017-Oct-14 06:30N 43°35' E 010°18'1 1.1
2017-Oct-14 06:01N 43°34' E 010°18'3 6.4
2017-Oct-14 05:31N 43°31' E 010°16'1 1.3
2017-Oct-14 05:00N 43°31' E 010°15'1 2.4
2017-Oct-14 04:31N 43°30' E 010°14'4 8.1
2017-Oct-14 04:01N 43°27' E 010°10'2 4.3
2017-Oct-14 03:30N 43°28' E 010°13'4 8.5
2017-Oct-14 03:00N 43°24' E 010°12'510.2
2017-Oct-14 02:31N 43°19' E 010°10'5 9.8
2017-Oct-14 02:01N 43°14' E 010°09'611.8
2017-Oct-14 01:30N 43°09' E 010°07'815.1
2017-Oct-14 00:57N 43°00' E 010°03'614.7
2017-Oct-14 00:30N 42°55' E 009°58'714.6
2017-Oct-14 00:00N 42°50' E 009°51'2414.9
2017-Oct-13 22:25N 42°26' E 009°51'2014.8
2017-Oct-13 21:02N 42°06' E 009°57'115.5
2017-Oct-13 20:58N 42°06' E 009°58'715.6
2017-Oct-13 20:31N 42°01' E 010°06'815.9
2017-Oct-13 20:01N 41°57' E 010°15'815.5
2017-Oct-13 19:28N 41°51' E 010°23'2215.7
2017-Oct-13 18:06N 41°38' E 010°45'  

Dump ship's entire track history